X  Lukk Metar værinformasjon om luftfart     ENZV Stavanger Airport, Sola
Temperatur
7°C Temperatur
6°C Duggpunkt
93% Luftfuktighet



Vind
2 M/S
5 MPT
8 KM/T
4 KNP



340°
NNV
Nåværende forhold

For det meste Overskyet For det meste Overskyet
Trykk 1025.92 (hPa) - 30.3 (inHg)
Sikt 6.2 (mil) - 10 (km)
Flyplass
Flyplass-kode ENZV

Plassering: Stavanger Airport, Sola
Avstand: 15 (km)

Metar:
ENZV 212320Z 34004KT 9999 BKN006 07/06 Q1026

Tid: 22-01-2022 00:20 CET